Time;durP1;ratioP1;P1;durP2;ratioP2;P2;SDS_P1;SDS_P2;PMS_P1;PMS_P2;Temp;Humidity;BMP_temperature;BMP_pressure;BME280_temperature;BME280_humidity;BME280_pressure;Samples;Min_cycle;Max_cycle;Signal;HPM_P1;HPM_P2
2022/10/11 00:00:34;;;;;;;13.98;3.70;;;8.20;99.90;;;;;;5051011;28;20445;-63
2022/10/11 00:03:00;;;;;;;14.40;3.33;;;8.20;99.90;;;;;;5050168;28;20080;-63
2022/10/11 00:05:26;;;;;;;14.00;3.42;;;8.20;99.90;;;;;;5050470;28;20029;-63
2022/10/11 00:07:52;;;;;;;15.77;4.10;;;8.10;99.90;;;;;;5052059;28;20044;-63
2022/10/11 00:10:18;;;;;;;11.02;3.47;;;8.00;99.90;;;;;;5051796;28;20033;-63
2022/10/11 00:12:44;;;;;;;13.23;3.33;;;8.10;99.90;;;;;;5051036;28;20052;-62
2022/10/11 00:15:15;;;;;;;12.82;3.50;;;8.00;99.90;;;;;;5050912;28;20037;-64
2022/10/11 00:17:40;;;;;;;12.15;3.13;;;8.00;99.90;;;;;;5051317;28;20147;-63
2022/10/11 00:20:06;;;;;;;13.48;3.63;;;8.00;99.90;;;;;;5052475;28;20094;-63
2022/10/11 00:22:34;;;;;;;12.13;3.25;;;8.00;99.90;;;;;;5052108;28;20091;-64
2022/10/11 00:24:59;;;;;;;11.40;2.72;;;8.00;99.90;;;;;;5051561;28;20244;-64
2022/10/11 00:27:25;;;;;;;11.52;2.80;;;8.00;99.90;;;;;;5051994;28;20041;-64
2022/10/11 00:29:51;;;;;;;9.63;3.10;;;8.00;99.90;;;;;;5051830;28;20377;-64
2022/10/11 00:32:17;;;;;;;10.85;3.13;;;8.00;99.90;;;;;;5051990;28;20037;-63
2022/10/11 00:34:43;;;;;;;11.30;3.38;;;8.00;99.90;;;;;;5051428;28;20255;-64
2022/10/11 00:37:08;;;;;;;10.20;2.50;;;8.00;99.90;;;;;;5051920;28;20385;-63
2022/10/11 00:39:34;;;;;;;16.05;3.20;;;8.00;99.90;;;;;;5051483;28;20233;-65
2022/10/11 00:42:00;;;;;;;13.50;2.90;;;8.00;99.90;;;;;;5052028;28;20530;-64
2022/10/11 00:44:27;;;;;;;12.98;3.25;;;8.00;99.90;;;;;;5051797;28;20060;-63
2022/10/11 00:46:57;;;;;;;16.85;3.03;;;8.10;99.90;;;;;;5051094;28;20316;-64
2022/10/11 00:49:36;;;;;;;8.20;3.17;;;8.00;99.90;;;;;;5052275;28;20095;-63
2022/10/11 00:52:12;;;;;;;8.40;3.15;;;8.00;99.90;;;;;;5052230;28;20094;-63
2022/10/11 00:54:41;;;;;;;11.30;3.00;;;7.90;99.90;;;;;;5051897;28;20073;-63
2022/10/11 00:57:12;;;;;;;12.48;3.25;;;7.90;99.90;;;;;;5050663;28;20051;-64
2022/10/11 00:59:44;;;;;;;14.10;2.47;;;7.90;99.90;;;;;;5052139;28;20041;-63
2022/10/11 01:02:11;;;;;;;10.65;2.47;;;7.90;99.90;;;;;;5052087;28;20036;-63
2022/10/11 01:04:55;;;;;;;11.77;2.60;;;7.80;99.90;;;;;;5051383;28;20087;-63
2022/10/11 01:07:21;;;;;;;10.38;2.97;;;7.80;99.90;;;;;;5051253;28;20669;-64
2022/10/11 01:09:47;;;;;;;10.13;2.88;;;7.80;99.90;;;;;;5050793;28;20037;-64
2022/10/11 01:12:21;;;;;;;8.32;2.55;;;7.80;99.90;;;;;;5051492;28;20142;-63
2022/10/11 01:15:09;;;;;;;9.55;2.58;;;7.60;99.90;;;;;;5050674;28;20045;-63
2022/10/11 01:17:49;;;;;;;9.05;2.67;;;7.70;99.90;;;;;;5037307;28;20037;-64
2022/10/11 01:20:44;;;;;;;10.13;2.45;;;7.60;99.90;;;;;;5051520;28;20045;-63
2022/10/11 01:23:09;;;;;;;;;;;7.60;99.90;;;;;;5049751;28;20052;-64
2022/10/11 01:25:38;;;;;;;9.57;2.40;;;7.50;99.90;;;;;;5049321;28;19920;-63
2022/10/11 01:28:29;;;;;;;8.20;2.70;;;7.50;99.90;;;;;;5051372;28;20052;-64
2022/10/11 01:31:03;;;;;;;8.95;2.38;;;7.60;99.90;;;;;;5051077;28;20045;-63
2022/10/11 01:33:34;;;;;;;;;;;7.60;99.90;;;;;;5051434;28;20040;-63
2022/10/11 01:36:13;;;;;;;12.27;3.20;;;7.60;99.90;;;;;;5051388;28;19917;-63
2022/10/11 01:38:49;;;;;;;10.00;2.60;;;7.60;99.90;;;;;;5051317;28;20041;-63
2022/10/11 01:41:23;;;;;;;9.27;2.75;;;7.60;99.90;;;;;;5050959;28;20108;-63
2022/10/11 01:43:52;;;;;;;10.88;2.95;;;7.50;99.90;;;;;;5050431;28;20076;-63
2022/10/11 01:46:20;;;;;;;11.30;3.28;;;7.50;99.90;;;;;;5050213;28;20059;-64
2022/10/11 01:48:51;;;;;;;10.32;2.63;;;7.70;99.90;;;;;;5050847;28;20108;-64
2022/10/11 01:51:20;;;;;;;12.60;3.15;;;7.50;99.90;;;;;;5049417;28;20343;-67
2022/10/11 01:53:58;;;;;;;11.50;2.92;;;7.50;99.90;;;;;;5035947;28;20044;-63
2022/10/11 01:56:32;;;;;;;12.07;2.92;;;7.50;99.90;;;;;;5050618;28;20441;-63
2022/10/11 01:59:30;;;;;;;12.15;3.17;;;7.50;99.90;;;;;;5037527;28;20041;-63
2022/10/11 02:02:08;;;;;;;9.90;2.70;;;7.50;99.90;;;;;;5049962;28;20365;-63
2022/10/11 02:04:52;;;;;;;10.63;2.75;;;7.50;99.90;;;;;;5050368;28;20037;-64
2022/10/11 02:07:32;;;;;;;12.63;2.97;;;7.50;99.90;;;;;;5049629;28;20048;-64
2022/10/11 02:10:11;;;;;;;10.35;3.08;;;7.40;99.90;;;;;;5050843;28;20110;-63
2022/10/11 02:12:45;;;;;;;10.05;3.00;;;7.40;99.90;;;;;;5050229;28;20044;-64
2022/10/11 02:15:14;;;;;;;11.27;2.67;;;7.40;99.90;;;;;;5050214;28;20037;-63
2022/10/11 02:17:46;;;;;;;9.77;2.72;;;7.40;99.90;;;;;;5050504;28;20157;-63
2022/10/11 02:20:18;;;;;;;8.05;2.30;;;7.40;99.90;;;;;;5049387;28;20040;-64
2022/10/11 02:22:47;;;;;;;11.80;2.95;;;7.40;99.90;;;;;;5053580;28;20037;-63
2022/10/11 02:25:18;;;;;;;15.40;2.95;;;7.30;99.90;;;;;;5054793;28;20124;-64
2022/10/11 02:27:47;;;;;;;10.98;3.00;;;7.30;99.90;;;;;;5053544;28;20048;-63
2022/10/11 02:30:14;;;;;;;9.07;2.47;;;7.30;99.90;;;;;;5054887;28;20033;-63
2022/10/11 02:32:42;;;;;;;10.77;3.00;;;7.20;99.90;;;;;;5053436;28;20509;-64
2022/10/11 02:35:10;;;;;;;10.52;2.50;;;7.20;99.90;;;;;;5054465;28;20033;-64
2022/10/11 02:37:52;;;;;;;10.10;2.85;;;7.20;99.90;;;;;;5054394;28;20131;-64
2022/10/11 02:40:29;;;;;;;11.32;2.70;;;7.20;99.90;;;;;;5054374;28;20068;-64
2022/10/11 02:43:01;;;;;;;9.60;2.88;;;7.10;99.90;;;;;;5053594;28;20506;-63
2022/10/11 02:45:47;;;;;;;11.32;3.13;;;7.10;99.90;;;;;;5054068;28;20052;-63
2022/10/11 02:48:13;;;;;;;11.50;2.88;;;7.10;99.90;;;;;;5052888;28;20381;-63
2022/10/11 02:50:39;;;;;;;7.95;2.58;;;7.10;99.90;;;;;;5054403;28;20112;-64
2022/10/11 02:53:06;;;;;;;13.75;2.97;;;7.20;99.90;;;;;;5052813;28;20037;-63
2022/10/11 02:55:31;;;;;;;15.32;3.25;;;7.20;99.90;;;;;;5054143;28;20116;-65
2022/10/11 02:57:57;;;;;;;12.80;3.28;;;7.10;99.90;;;;;;5053875;28;20116;-64
2022/10/11 03:00:23;;;;;;;12.55;3.00;;;7.10;99.90;;;;;;5053793;28;20041;-63
2022/10/11 03:02:48;;;;;;;13.05;3.47;;;7.10;99.90;;;;;;5053946;28;20049;-64
2022/10/11 03:05:14;;;;;;;14.38;3.58;;;7.10;99.90;;;;;;5053557;28;20039;-64
2022/10/11 03:07:39;;;;;;;11.68;2.97;;;7.00;99.90;;;;;;5053596;28;20354;-63
2022/10/11 03:10:05;;;;;;;11.10;3.00;;;7.00;99.90;;;;;;5054199;28;20041;-63
2022/10/11 03:12:31;;;;;;;9.73;2.88;;;7.00;99.90;;;;;;5053994;28;20055;-64
2022/10/11 03:14:57;;;;;;;11.98;3.50;;;6.90;99.90;;;;;;5054058;28;20041;-64
2022/10/11 03:17:23;;;;;;;11.07;3.00;;;6.90;99.90;;;;;;5053988;28;20548;-63
2022/10/11 03:19:48;;;;;;;10.43;2.80;;;6.90;99.90;;;;;;5054480;28;20072;-64
2022/10/11 03:22:14;;;;;;;9.18;2.70;;;6.90;99.90;;;;;;5053496;28;20041;-64
2022/10/11 03:24:40;;;;;;;8.02;2.75;;;6.90;99.90;;;;;;5052136;28;20075;-63
2022/10/11 03:27:06;;;;;;;11.07;2.88;;;6.90;99.90;;;;;;5051857;28;20402;-63
2022/10/11 03:29:31;;;;;;;9.27;2.70;;;6.90;99.90;;;;;;5053565;28;20036;-65
2022/10/11 03:31:58;;;;;;;13.07;3.28;;;6.90;99.90;;;;;;5053503;28;20041;-63
2022/10/11 03:34:23;;;;;;;7.10;2.30;;;6.80;99.90;;;;;;5052521;28;20097;-63
2022/10/11 03:36:49;;;;;;;8.13;2.65;;;6.80;99.90;;;;;;5053091;28;20033;-63
2022/10/11 03:39:15;;;;;;;10.32;2.75;;;6.80;99.90;;;;;;5053633;28;20453;-64
2022/10/11 03:41:40;;;;;;;11.55;3.15;;;6.70;99.90;;;;;;5053172;28;20071;-63
2022/10/11 03:44:06;;;;;;;10.32;2.78;;;6.70;99.90;;;;;;5053261;28;20041;-64
2022/10/11 03:46:31;;;;;;;9.88;2.78;;;6.70;99.90;;;;;;5053324;28;20033;-64
2022/10/11 03:48:57;;;;;;;12.10;3.03;;;6.70;99.90;;;;;;5053394;28;20436;-64
2022/10/11 03:51:23;;;;;;;10.63;2.83;;;6.80;99.90;;;;;;5053284;28;20072;-63
2022/10/11 03:53:48;;;;;;;9.68;3.03;;;6.70;99.90;;;;;;5052873;28;20037;-64
2022/10/11 03:56:14;;;;;;;7.30;2.60;;;6.70;99.90;;;;;;5052009;28;20045;-63
2022/10/11 03:58:40;;;;;;;8.27;2.97;;;6.80;99.90;;;;;;5053044;28;20409;-63
2022/10/11 04:01:06;;;;;;;9.73;2.80;;;6.80;99.90;;;;;;5053160;28;20048;-64
2022/10/11 04:03:32;;;;;;;14.90;3.70;;;6.80;99.90;;;;;;5051579;28;20342;-64
2022/10/11 04:05:57;;;;;;;9.60;2.90;;;6.80;99.90;;;;;;5052624;28;20107;-63
2022/10/11 04:08:23;;;;;;;10.38;2.90;;;6.70;99.90;;;;;;5052512;28;20080;-64
2022/10/11 04:10:48;;;;;;;8.77;3.00;;;6.70;99.90;;;;;;5051500;28;20366;-64
2022/10/11 04:13:14;;;;;;;8.82;2.75;;;6.70;99.90;;;;;;5052108;28;20120;-63
2022/10/11 04:15:40;;;;;;;8.50;3.08;;;6.70;99.90;;;;;;5052847;28;20025;-63
2022/10/11 04:18:06;;;;;;;11.68;3.58;;;6.70;99.90;;;;;;5052496;28;20036;-64
2022/10/11 04:20:32;;;;;;;13.43;2.95;;;6.70;99.90;;;;;;5052288;28;20128;-63
2022/10/11 04:22:58;;;;;;;8.30;2.70;;;6.70;99.90;;;;;;5051608;28;20125;-63
2022/10/11 04:25:23;;;;;;;14.15;3.25;;;6.70;99.90;;;;;;5052241;28;20128;-63
2022/10/11 04:27:49;;;;;;;8.15;2.72;;;6.60;99.90;;;;;;5050988;28;20079;-63
2022/10/11 04:30:15;;;;;;;7.60;2.60;;;6.60;99.90;;;;;;5052142;28;20048;-64
2022/10/11 04:32:41;;;;;;;9.65;2.85;;;6.60;99.90;;;;;;5050675;28;20091;-63
2022/10/11 04:35:08;;;;;;;12.70;3.08;;;6.50;99.90;;;;;;5052006;28;20036;-63
2022/10/11 04:37:33;;;;;;;13.05;3.20;;;6.50;99.90;;;;;;5051973;28;20036;-64
2022/10/11 04:39:59;;;;;;;12.07;3.15;;;6.50;99.90;;;;;;5051858;28;20155;-63
2022/10/11 04:42:24;;;;;;;11.05;3.30;;;6.50;99.90;;;;;;5052240;28;20092;-63
2022/10/11 04:44:50;;;;;;;11.38;3.58;;;6.50;99.90;;;;;;5052113;28;20067;-63
2022/10/11 04:47:16;;;;;;;11.10;3.10;;;6.50;99.90;;;;;;5051892;28;20052;-64
2022/10/11 04:49:42;;;;;;;9.85;3.40;;;6.50;99.90;;;;;;5051464;28;20044;-63
2022/10/11 04:52:07;;;;;;;14.35;3.63;;;6.60;99.90;;;;;;5052229;28;20033;-63
2022/10/11 04:54:33;;;;;;;11.50;3.20;;;6.50;99.90;;;;;;5051409;28;20033;-65
2022/10/11 04:56:58;;;;;;;11.60;3.35;;;6.50;99.90;;;;;;5051853;28;20040;-62
2022/10/11 04:59:24;;;;;;;14.00;3.80;;;6.50;99.90;;;;;;5051168;28;20387;-63
2022/10/11 05:01:49;;;;;;;13.68;3.65;;;6.50;99.90;;;;;;5050975;28;20062;-65
2022/10/11 05:04:15;;;;;;;12.65;3.63;;;6.50;99.90;;;;;;5050646;28;20314;-64
2022/10/11 05:06:41;;;;;;;11.68;3.90;;;6.60;99.90;;;;;;5051083;28;20124;-62
2022/10/11 05:09:06;;;;;;;13.27;3.70;;;6.60;99.90;;;;;;5051281;28;20037;-63
2022/10/11 05:11:32;;;;;;;12.40;4.13;;;6.60;99.90;;;;;;5050282;28;20079;-63
2022/10/11 05:13:57;;;;;;;13.07;3.80;;;6.60;99.90;;;;;;5048472;28;20091;-63
2022/10/11 05:16:23;;;;;;;11.07;4.05;;;6.60;99.90;;;;;;5050291;28;20044;-63
2022/10/11 05:18:49;;;;;;;12.40;3.63;;;6.60;99.90;;;;;;5051361;28;20109;-63
2022/10/11 05:21:18;;;;;;;15.35;3.60;;;6.60;99.90;;;;;;5050984;28;20057;-64
2022/10/11 05:23:45;;;;;;;10.30;3.92;;;6.60;99.90;;;;;;5049617;28;20045;-64
2022/10/11 05:26:11;;;;;;;12.25;3.88;;;6.60;99.90;;;;;;5050846;28;20045;-68
2022/10/11 05:28:37;;;;;;;12.88;3.58;;;6.60;99.90;;;;;;5051602;28;20044;-63
2022/10/11 05:31:03;;;;;;;12.23;3.80;;;6.60;99.90;;;;;;5051653;28;20067;-64
2022/10/11 05:33:28;;;;;;;9.73;3.60;;;6.60;99.90;;;;;;5050465;28;20045;-65
2022/10/11 05:35:54;;;;;;;11.25;3.40;;;6.60;99.90;;;;;;5050100;28;20049;-64
2022/10/11 05:38:20;;;;;;;12.00;3.88;;;6.60;99.90;;;;;;5051501;28;20033;-64
2022/10/11 05:40:46;;;;;;;11.13;4.32;;;6.60;99.90;;;;;;5049987;28;20049;-64
2022/10/11 05:43:11;;;;;;;9.93;3.80;;;6.60;99.90;;;;;;5033059;28;20055;-65
2022/10/11 05:45:38;;;;;;;12.88;3.95;;;6.60;99.90;;;;;;5051076;28;20492;-63
2022/10/11 05:48:04;;;;;;;10.52;3.53;;;6.60;99.90;;;;;;5049449;28;20054;-65
2022/10/11 05:50:30;;;;;;;10.65;3.50;;;6.60;99.90;;;;;;5049583;28;20346;-64
2022/10/11 05:52:56;;;;;;;13.25;4.13;;;6.60;99.90;;;;;;5050331;28;20040;-63
2022/10/11 05:55:22;;;;;;;14.65;4.30;;;6.60;99.90;;;;;;5050632;28;20037;-65
2022/10/11 05:57:50;;;;;;;14.05;3.90;;;6.60;99.90;;;;;;5050990;28;20047;-64
2022/10/11 06:00:16;;;;;;;11.52;3.92;;;6.60;99.90;;;;;;5049352;28;20320;-64
2022/10/11 06:02:41;;;;;;;9.07;3.55;;;6.60;99.90;;;;;;5050777;28;20450;-64
2022/10/11 06:05:07;;;;;;;12.10;3.85;;;6.60;99.90;;;;;;5049620;28;20041;-65
2022/10/11 06:07:35;;;;;;;14.70;4.53;;;6.60;99.90;;;;;;5050763;28;20068;-65
2022/10/11 06:10:01;;;;;;;10.25;4.07;;;6.60;99.90;;;;;;5051282;28;20037;-64
2022/10/11 06:12:28;;;;;;;12.27;4.32;;;6.60;99.90;;;;;;5049178;28;20029;-65
2022/10/11 06:14:54;;;;;;;10.52;4.25;;;6.60;99.90;;;;;;5050876;28;20033;-64
2022/10/11 06:17:20;;;;;;;17.00;4.65;;;6.70;99.90;;;;;;5050901;28;20347;-64
2022/10/11 06:19:45;;;;;;;13.23;4.20;;;6.70;99.90;;;;;;5049849;28;20083;-64
2022/10/11 06:22:11;;;;;;;11.88;4.15;;;6.70;99.90;;;;;;5050280;28;20056;-65
2022/10/11 06:24:37;;;;;;;15.00;4.63;;;6.80;99.90;;;;;;5050634;28;20064;-64
2022/10/11 06:27:02;;;;;;;11.38;4.60;;;6.80;99.90;;;;;;5050534;28;20065;-64
2022/10/11 06:29:28;;;;;;;12.70;4.40;;;6.80;99.90;;;;;;5050739;28;20029;-65
2022/10/11 06:31:53;;;;;;;15.10;4.10;;;6.80;99.90;;;;;;5050903;28;20048;-63
2022/10/11 06:34:19;;;;;;;13.45;4.20;;;6.80;99.90;;;;;;5050494;28;20448;-64
2022/10/11 06:36:45;;;;;;;14.00;4.35;;;6.90;99.90;;;;;;5050422;28;20029;-65
2022/10/11 06:39:10;;;;;;;15.48;7.35;;;6.90;99.90;;;;;;5050589;28;20056;-64
2022/10/11 06:41:36;;;;;;;12.30;5.05;;;7.00;99.90;;;;;;5048062;28;20056;-64
2022/10/11 06:44:02;;;;;;;14.15;4.97;;;7.00;99.90;;;;;;5050357;28;20049;-65
2022/10/11 06:46:30;;;;;;;12.77;4.43;;;7.00;99.90;;;;;;5049144;28;20037;-64
2022/10/11 06:48:56;;;;;;;11.23;4.38;;;7.00;99.90;;;;;;5050322;28;20497;-65
2022/10/11 06:51:22;;;;;;;24.90;14.60;;;7.10;99.90;;;;;;5050583;28;20045;-64
2022/10/11 06:53:50;;;;;;;21.15;13.38;;;7.10;99.90;;;;;;5049921;28;20504;-64
2022/10/11 06:56:16;;;;;;;15.35;6.00;;;7.10;99.90;;;;;;5050232;28;20033;-65
2022/10/11 06:58:41;;;;;;;16.75;5.38;;;7.10;99.90;;;;;;5049393;28;20048;-65
2022/10/11 07:01:10;;;;;;;13.85;4.47;;;7.20;99.90;;;;;;5050248;28;20123;-65
2022/10/11 07:03:36;;;;;;;13.98;4.68;;;7.20;99.90;;;;;;5049957;28;20136;-65
2022/10/11 07:06:09;;;;;;;16.67;6.18;;;7.30;99.90;;;;;;5050319;28;20407;-64
2022/10/11 07:08:36;;;;;;;15.05;6.82;;;7.30;99.90;;;;;;5046129;28;20186;-65
2022/10/11 07:11:04;;;;;;;14.52;4.93;;;7.30;99.90;;;;;;5054113;28;20081;-65
2022/10/11 07:13:29;;;;;;;14.15;4.80;;;7.40;99.90;;;;;;5053644;28;20394;-64
2022/10/11 07:15:55;;;;;;;14.38;4.80;;;7.40;99.90;;;;;;5053628;28;20544;-65
2022/10/11 07:18:22;;;;;;;13.55;4.57;;;7.50;99.90;;;;;;5054030;28;20069;-64
2022/10/11 07:20:48;;;;;;;14.32;4.47;;;7.50;99.90;;;;;;5053728;28;20552;-65
2022/10/11 07:23:14;;;;;;;14.23;4.70;;;7.50;99.90;;;;;;5053390;28;20106;-66
2022/10/11 07:25:40;;;;;;;14.68;4.97;;;7.60;99.90;;;;;;5052428;28;20044;-65
2022/10/11 07:28:06;;;;;;;13.13;5.95;;;7.60;99.90;;;;;;5053899;28;20049;-64
2022/10/11 07:30:31;;;;;;;15.40;5.82;;;7.70;99.90;;;;;;5053769;28;20040;-63
2022/10/11 07:32:57;;;;;;;11.63;4.40;;;7.70;99.90;;;;;;5053673;28;20457;-64
2022/10/11 07:35:22;;;;;;;15.20;4.30;;;7.80;99.90;;;;;;5052597;28;20037;-63
2022/10/11 07:37:48;;;;;;;16.30;6.40;;;7.80;99.90;;;;;;5053502;28;20513;-64
2022/10/11 07:40:13;;;;;;;13.50;5.05;;;7.90;99.90;;;;;;5053375;28;20122;-64
2022/10/11 07:42:39;;;;;;;11.98;4.22;;;7.90;99.90;;;;;;5053450;28;20052;-64
2022/10/11 07:45:05;;;;;;;12.40;3.92;;;8.00;99.90;;;;;;5052020;28;20129;-65
2022/10/11 07:47:31;;;;;;;11.52;3.92;;;8.10;99.90;;;;;;5053494;28;20127;-64
2022/10/11 07:49:56;;;;;;;11.68;3.88;;;8.10;99.90;;;;;;5053415;28;20149;-65
2022/10/11 07:52:22;;;;;;;13.05;5.53;;;8.20;99.90;;;;;;5052808;28;20037;-63
2022/10/11 07:54:48;;;;;;;11.55;4.10;;;8.30;99.90;;;;;;5053517;28;20037;-65
2022/10/11 07:57:14;;;;;;;12.52;4.47;;;8.40;99.90;;;;;;5053332;28;20063;-64
2022/10/11 07:59:40;;;;;;;14.27;4.18;;;8.50;99.90;;;;;;5052242;28;20045;-64
2022/10/11 08:02:12;;;;;;;10.48;3.95;;;8.60;99.90;;;;;;5052052;28;20504;-65
2022/10/11 08:04:38;;;;;;;15.32;4.30;;;8.60;99.90;;;;;;5053304;28;20045;-65
2022/10/11 08:07:04;;;;;;;11.77;4.07;;;8.70;99.90;;;;;;5052958;28;20044;-67
2022/10/11 08:09:29;;;;;;;11.10;4.20;;;8.80;99.90;;;;;;5053355;28;20401;-64
2022/10/11 08:11:55;;;;;;;12.38;4.78;;;8.90;99.90;;;;;;5052695;28;20052;-67
2022/10/11 08:14:21;;;;;;;9.38;4.00;;;8.90;99.90;;;;;;5035412;28;20045;-65
2022/10/11 08:16:47;;;;;;;13.45;4.15;;;9.10;99.90;;;;;;5052476;28;20045;-64
2022/10/11 08:19:13;;;;;;;14.38;4.80;;;9.10;99.90;;;;;;5052785;28;20079;-65
2022/10/11 08:21:39;;;;;;;17.73;4.93;;;9.20;99.90;;;;;;5051991;28;20066;-64
2022/10/11 08:24:05;;;;;;;16.65;4.45;;;9.30;99.90;;;;;;5050976;28;20037;-64
2022/10/11 08:26:32;;;;;;;13.18;4.95;;;9.40;99.90;;;;;;5052436;28;20378;-64
2022/10/11 08:29:02;;;;;;;12.85;4.40;;;9.60;99.90;;;;;;5052641;28;20040;-64
2022/10/11 08:31:27;;;;;;;10.57;3.78;;;9.60;99.90;;;;;;5052820;28;20048;-64
2022/10/11 08:33:53;;;;;;;11.88;4.10;;;9.70;99.90;;;;;;5052312;28;20147;-64
2022/10/11 08:36:19;;;;;;;13.30;4.40;;;9.90;99.90;;;;;;5052580;28;20033;-64
2022/10/11 08:38:44;;;;;;;13.23;3.92;;;9.90;99.90;;;;;;5052162;28;20032;-64
2022/10/11 08:41:35;;;;;;;13.77;4.28;;;10.10;99.90;;;;;;5052237;28;20115;-64
2022/10/11 08:44:28;;;;;;;11.20;3.83;;;10.20;99.90;;;;;;5052352;28;20067;-64
2022/10/11 08:47:32;;;;;;;15.65;4.10;;;10.30;99.90;;;;;;5052126;28;20040;-64
2022/10/11 08:49:59;;;;;;;14.20;3.83;;;10.50;99.90;;;;;;5049647;28;20118;-64
2022/10/11 08:52:38;;;;;;;13.80;3.97;;;10.70;99.90;;;;;;5051083;28;20045;-65
2022/10/11 08:55:06;;;;;;;11.90;3.55;;;10.80;99.90;;;;;;5050955;28;20580;-64
2022/10/11 08:57:35;;;;;;;14.70;4.00;;;11.00;99.90;;;;;;5051684;28;20045;-65
2022/10/11 09:00:14;;;;;;;11.00;3.35;;;11.10;99.90;;;;;;5051208;28;20458;-64
2022/10/11 09:02:54;;;;;;;13.32;3.92;;;11.30;99.90;;;;;;5052062;28;20120;-65
2022/10/11 09:05:24;;;;;;;10.40;3.35;;;11.30;99.90;;;;;;5050972;28;20037;-64
2022/10/11 09:08:14;;;;;;;14.20;3.30;;;11.50;99.90;;;;;;5052015;28;20040;-65
2022/10/11 09:11:08;;;;;;;10.90;3.42;;;11.70;99.90;;;;;;5050949;28;20442;-64
2022/10/11 09:13:59;;;;;;;14.15;4.25;;;11.80;99.90;;;;;;5051287;28;20116;-64
2022/10/11 09:17:10;;;;;;;10.43;3.33;;;12.00;99.90;;;;;;5051672;28;20489;-63
2022/10/11 09:20:11;;;;;;;15.23;4.00;;;12.10;99.90;;;;;;5038749;28;20053;-64
2022/10/11 09:22:52;;;;;;;12.70;4.07;;;12.20;99.90;;;;;;5045347;28;20419;-64
2022/10/11 09:25:27;;;;;;;12.75;3.30;;;12.30;99.90;;;;;;5051554;28;20077;-64
2022/10/11 09:28:09;;;;;;;12.18;3.55;;;12.30;99.90;;;;;;5037253;28;20041;-65
2022/10/11 09:30:39;;;;;;;12.05;3.42;;;12.30;99.90;;;;;;5050784;28;20033;-63
2022/10/11 09:33:22;;;;;;;10.32;3.30;;;12.30;99.90;;;;;;5049993;28;20386;-64
2022/10/11 09:35:50;;;;;;;11.30;3.40;;;12.40;99.90;;;;;;5050609;28;20402;-63
2022/10/11 09:38:41;;;;;;;11.77;3.25;;;12.50;99.90;;;;;;5051270;28;20033;-63
2022/10/11 09:41:30;;;;;;;13.95;4.25;;;12.50;99.90;;;;;;5051088;28;20064;-64
2022/10/11 09:43:55;;;;;;;12.98;3.25;;;12.60;99.90;;;;;;5040097;28;20049;-63
2022/10/11 09:46:35;;;;;;;13.00;3.55;;;12.70;99.90;;;;;;5051556;28;20180;-66
2022/10/11 09:49:06;;;;;;;13.40;2.95;;;12.80;99.90;;;;;;5051533;28;20107;-65
2022/10/11 09:51:33;;;;;;;10.63;3.60;;;12.70;99.90;;;;;;5051418;28;20337;-66
2022/10/11 09:54:04;;;;;;;13.32;3.40;;;12.80;99.90;;;;;;5051014;28;20087;-65
2022/10/11 09:56:32;;;;;;;15.93;3.78;;;12.90;99.90;;;;;;5051357;28;20029;-66
2022/10/11 09:59:30;;;;;;;8.68;3.33;;;13.10;99.90;;;;;;5051127;28;20106;-65
2022/10/11 10:02:25;;;;;;;11.65;2.92;;;13.30;99.90;;;;;;5050770;28;20106;-65
2022/10/11 10:04:57;;;;;;;10.27;3.33;;;13.30;99.90;;;;;;5050174;28;20053;-66
2022/10/11 10:07:22;;;;;;;14.38;4.30;;;13.40;99.90;;;;;;5050781;28;20069;-65
2022/10/11 10:09:49;;;;;;;15.55;5.18;;;13.50;99.90;;;;;;5051010;28;20189;-66
2022/10/11 10:12:21;;;;;;;15.15;3.78;;;13.60;99.90;;;;;;5050752;28;20140;-65
2022/10/11 10:15:13;;;;;;;15.32;3.30;;;13.70;99.90;;;;;;5050966;28;20044;-66
2022/10/11 10:17:46;;;;;;;12.38;3.53;;;13.70;99.90;;;;;;5050570;28;20461;-64
2022/10/11 10:20:23;;;;;;;14.20;3.38;;;13.80;99.90;;;;;;5051111;28;20050;-64
2022/10/11 10:22:50;;;;;;;12.38;3.17;;;13.80;99.90;;;;;;5050354;28;20043;-64
2022/10/11 10:25:33;;;;;;;10.93;2.63;;;13.80;99.90;;;;;;5050859;28;20045;-65
2022/10/11 10:28:01;;;;;;;12.70;3.08;;;13.80;99.90;;;;;;5038504;28;20051;-64
2022/10/11 10:30:28;;;;;;;12.93;3.40;;;13.80;99.90;;;;;;5050984;28;20048;-65
2022/10/11 10:33:09;;;;;;;9.18;2.60;;;13.80;99.90;;;;;;5050349;28;20139;-64
2022/10/11 10:35:44;;;;;;;13.00;3.08;;;13.90;99.90;;;;;;5050869;28;20456;-62
2022/10/11 10:38:24;;;;;;;9.55;2.65;;;14.00;99.90;;;;;;5032741;28;20059;-65
2022/10/11 10:41:02;;;;;;;9.48;3.00;;;14.10;99.90;;;;;;5050553;28;20057;-66
2022/10/11 10:43:32;;;;;;;10.48;2.55;;;14.20;99.90;;;;;;5053680;28;20128;-65
2022/10/11 10:46:24;;;;;;;13.10;2.75;;;14.20;99.90;;;;;;5054828;28;20045;-64
2022/10/11 10:48:59;;;;;;;11.15;2.50;;;14.30;99.90;;;;;;5040350;28;20044;-65
2022/10/11 10:51:41;;;;;;;11.68;2.60;;;14.30;99.90;;;;;;5054389;28;20465;-64
2022/10/11 10:54:38;;;;;;;8.98;2.80;;;14.50;99.90;;;;;;5054721;28;20041;-65
2022/10/11 10:57:13;;;;;;;12.68;3.25;;;14.40;99.90;;;;;;5048650;28;20049;-66
2022/10/11 11:00:03;;;;;;;10.60;2.42;;;14.50;99.90;;;;;;5054293;28;20506;-64
2022/10/11 11:02:42;;;;;;;10.50;2.60;;;14.50;99.90;;;;;;5053973;28;20036;-65
2022/10/11 11:05:22;;;;;;;11.55;2.75;;;14.60;99.90;;;;;;5054200;28;20480;-65
2022/10/11 11:07:54;;;;;;;12.93;3.10;;;14.70;99.90;;;;;;5043226;28;20354;-65
2022/10/11 11:10:26;;;;;;;11.43;2.42;;;14.70;99.90;;;;;;5054501;28;20052;-65
2022/10/11 11:13:06;;;;;;;12.23;2.90;;;14.80;99.90;;;;;;5053092;28;20060;-65
2022/10/11 11:15:46;;;;;;;17.42;3.20;;;14.80;99.90;;;;;;5054037;28;20110;-64
2022/10/11 11:18:30;;;;;;;11.55;2.50;;;14.80;99.90;;;;;;5054405;28;20049;-64
2022/10/11 11:21:17;;;;;;;10.55;3.03;;;14.90;99.90;;;;;;5053843;28;20047;-62
2022/10/11 11:24:04;;;;;;;10.50;2.63;;;14.80;99.90;;;;;;5053360;28;20048;-64
2022/10/11 11:26:42;;;;;;;14.25;3.03;;;14.90;99.90;;;;;;5054113;28;20052;-65
2022/10/11 11:29:29;;;;;;;11.50;2.78;;;15.00;99.90;;;;;;5054096;28;20103;-66
2022/10/11 11:32:03;;;;;;;11.27;2.95;;;15.00;99.90;;;;;;5053512;28;20045;-65
2022/10/11 11:34:35;;;;;;;;;;;14.90;99.90;;;;;;5054343;28;20044;-65
2022/10/11 11:37:08;;;;;;;8.73;2.60;;;14.90;99.90;;;;;;5053677;28;19959;-64
2022/10/11 11:39:44;;;;;;;12.75;3.33;;;14.80;99.90;;;;;;5053517;28;20120;-66
2022/10/11 11:42:18;;;;;;;11.82;3.50;;;14.80;99.90;;;;;;5053691;28;20041;-62
2022/10/11 11:44:50;;;;;;;10.23;3.30;;;14.90;99.90;;;;;;5052181;28;20040;-62
2022/10/11 11:47:33;;;;;;;10.52;3.03;;;14.90;99.90;;;;;;5053245;28;20041;-62
2022/10/11 11:50:01;;;;;;;9.05;2.65;;;15.00;99.90;;;;;;5053614;28;20048;-63
2022/10/11 11:52:35;;;;;;;12.95;2.90;;;15.00;99.90;;;;;;5051920;28;20043;-63
2022/10/11 11:55:04;;;;;;;10.20;2.50;;;15.00;99.90;;;;;;5052772;28;20052;-63
2022/10/11 11:58:01;;;;;;;13.30;2.72;;;15.00;99.90;;;;;;5051958;28;20064;-63
2022/10/11 12:00:33;;;;;;;11.63;2.95;;;14.90;99.90;;;;;;5051658;28;20056;-63
2022/10/11 12:03:00;;;;;;;12.15;2.70;;;14.90;99.90;;;;;;5053075;28;20406;-64
2022/10/11 12:05:31;;;;;;;11.05;2.88;;;14.90;99.90;;;;;;5053043;28;20037;-64
2022/10/11 12:07:58;;;;;;;13.15;3.08;;;14.80;99.90;;;;;;5053206;28;20076;-64
2022/10/11 12:10:29;;;;;;;9.52;3.38;;;14.70;99.90;;;;;;5053020;28;20127;-64
2022/10/11 12:13:18;;;;;;;9.75;2.75;;;14.70;99.90;;;;;;5052709;28;20045;-64
2022/10/11 12:16:00;;;;;;;14.45;2.63;;;14.70;99.90;;;;;;5052811;28;20040;-64
2022/10/11 12:18:28;;;;;;;12.35;2.80;;;14.80;99.90;;;;;;5053095;28;20087;-64
2022/10/11 12:21:04;;;;;;;8.70;2.40;;;14.80;99.90;;;;;;5052541;28;20510;-64
2022/10/11 12:23:30;;;;;;;10.60;2.60;;;14.80;99.90;;;;;;5052215;28;20466;-64
2022/10/11 12:26:14;;;;;;;15.63;3.13;;;14.80;99.90;;;;;;5052694;28;20132;-63
2022/10/11 12:28:40;;;;;;;10.63;3.17;;;14.70;99.90;;;;;;5052791;28;20174;-65
2022/10/11 12:31:16;;;;;;;11.23;3.08;;;14.70;99.90;;;;;;5052700;28;20124;-64
2022/10/11 12:33:45;;;;;;;11.02;2.63;;;14.70;99.90;;;;;;5052225;28;20037;-65
2022/10/11 12:36:40;;;;;;;11.02;2.53;;;14.60;99.90;;;;;;5052061;28;20465;-63
2022/10/11 12:39:18;;;;;;;15.43;4.10;;;14.60;99.90;;;;;;5052573;28;20036;-64
2022/10/11 12:41:47;;;;;;;12.27;3.30;;;14.60;99.90;;;;;;5046203;28;20056;-63
2022/10/11 12:44:26;;;;;;;11.75;3.17;;;14.50;99.90;;;;;;5052440;28;20049;-63
2022/10/11 12:46:56;;;;;;;14.82;3.00;;;14.40;99.90;;;;;;5052122;28;20068;-64
2022/10/11 12:49:50;;;;;;;14.05;3.08;;;14.40;99.90;;;;;;5052565;28;20064;-64
2022/10/11 12:52:47;;;;;;;10.27;2.65;;;14.50;99.90;;;;;;5039314;28;20051;-64
2022/10/11 12:55:36;;;;;;;9.90;2.63;;;14.50;99.90;;;;;;5052192;28;20041;-65
2022/10/11 12:58:19;;;;;;;10.23;2.58;;;14.40;99.90;;;;;;5044000;28;20064;-64
2022/10/11 13:00:51;;;;;;;12.40;2.93;;;14.30;99.90;;;;;;5052157;28;20033;-64
2022/10/11 13:03:40;;;;;;;15.07;3.20;;;14.20;99.90;;;;;;5051808;28;20118;-64
2022/10/11 13:06:14;;;;;;;10.90;3.20;;;14.20;99.90;;;;;;5050942;28;20041;-64